Time;durP1;ratioP1;P1;durP2;ratioP2;P2;SDS_P1;SDS_P2;PMS_P1;PMS_P2;Temp;Humidity;BMP_temperature;BMP_pressure;BME280_temperature;BME280_humidity;BME280_pressure;Samples;Min_cycle;Max_cycle;Signal;HPM_P1;HPM_P2
2021/09/25 00:00:30;;;;;;;3.50;1.12;;;;;;;9.82;75.36;99234.31;1720043;82;21100;-67
2021/09/25 00:02:57;;;;;;;2.42;0.78;;;;;;;9.86;75.30;99233.55;1684847;85;21432;-66
2021/09/25 00:05:28;;;;;;;5.00;0.88;;;;;;;9.89;75.19;99234.57;1684972;84;20952;-66
2021/09/25 00:07:55;;;;;;;3.92;0.90;;;;;;;9.88;75.06;99229.78;1684180;84;22494;-66
2021/09/25 00:10:22;;;;;;;4.17;0.90;;;;;;;9.88;75.00;99227.64;1684945;84;20957;-68
2021/09/25 00:12:49;;;;;;;1.98;0.78;;;;;;;9.89;74.99;99232.77;1682803;85;21009;-67
2021/09/25 00:15:16;;;;;;;2.10;0.80;;;;;;;9.91;74.95;99235.25;1684598;84;21057;-67
2021/09/25 00:17:45;;;;;;;2.55;0.95;;;;;;;9.92;74.85;99239.55;1684618;84;20953;-67
2021/09/25 00:20:13;;;;;;;3.40;0.88;;;;;;;9.93;74.81;99243.35;1672480;85;22936;-67
2021/09/25 00:22:39;;;;;;;1.95;0.90;;;;;;;9.95;74.76;99237.95;1684616;85;21036;-67
2021/09/25 00:25:07;;;;;;;1.95;0.80;;;;;;;9.95;74.70;99236.64;1684828;84;20961;-67
2021/09/25 00:27:34;;;;;;;6.70;0.95;;;;;;;9.96;74.66;99244.40;1684578;85;20968;-67
2021/09/25 00:30:00;;;;;;;2.30;0.80;;;;;;;9.98;74.61;99245.56;1684647;85;20996;-66
2021/09/25 00:32:27;;;;;;;1.65;0.93;;;;;;;10.00;74.57;99247.08;1684642;84;22221;-67
2021/09/25 00:34:53;;;;;;;4.67;1.05;;;;;;;10.01;74.52;99249.23;1720327;82;20981;-66
2021/09/25 00:37:19;;;;;;;1.77;0.90;;;;;;;10.00;74.46;99249.71;1670245;85;21508;-66
2021/09/25 00:39:46;;;;;;;2.65;0.95;;;;;;;10.00;74.43;99245.76;1670104;85;21503;-67
2021/09/25 00:42:12;;;;;;;3.08;0.90;;;;;;;10.02;74.40;99246.92;1671339;85;20972;-66
2021/09/25 00:44:39;;;;;;;2.10;1.00;;;;;;;10.01;74.40;99256.65;1671822;84;21814;-67
2021/09/25 00:47:05;;;;;;;5.12;1.12;;;;;;;10.01;74.36;99262.41;1685059;84;20948;-66
2021/09/25 00:49:32;;;;;;;2.83;0.80;;;;;;;10.01;74.37;99269.84;1685173;85;20984;-66
2021/09/25 00:51:58;;;;;;;2.33;0.80;;;;;;;10.00;74.37;99271.30;1685349;84;21043;-66
2021/09/25 00:54:24;;;;;;;4.05;1.00;;;;;;;10.00;74.40;99272.62;1685151;84;20965;-68
2021/09/25 00:56:51;;;;;;;4.67;0.80;;;;;;;9.98;74.40;99283.33;1707709;82;21851;-67
2021/09/25 00:59:18;;;;;;;2.77;0.90;;;;;;;9.98;74.42;99271.95;1709253;83;21083;-66
2021/09/25 01:01:45;;;;;;;1.77;0.80;;;;;;;9.97;74.47;99275.56;1713950;83;21420;-68
2021/09/25 01:04:12;;;;;;;2.80;0.95;;;;;;;9.98;74.48;99277.22;1691395;83;21020;-66
2021/09/25 01:06:38;;;;;;;2.75;0.82;;;;;;;9.97;74.55;99273.76;1685243;85;21545;-66
2021/09/25 01:09:05;;;;;;;2.72;0.95;;;;;;;9.96;74.57;99272.59;1685105;84;21467;-66
2021/09/25 01:11:32;;;;;;;3.70;1.00;;;;;;;9.96;74.58;99275.22;1685235;84;20980;-66
2021/09/25 01:13:58;;;;;;;2.20;0.88;;;;;;;9.94;74.59;99270.55;1685090;84;21545;-66
2021/09/25 01:16:25;;;;;;;1.55;0.75;;;;;;;9.94;74.60;99274.52;1685514;85;21468;-66
2021/09/25 01:18:51;;;;;;;2.83;0.65;;;;;;;9.93;74.60;99276.81;1685353;85;21032;-66
2021/09/25 01:21:18;;;;;;;2.20;0.80;;;;;;;9.91;74.67;99276.95;1685091;85;22489;-66
2021/09/25 01:23:44;;;;;;;3.58;0.80;;;;;;;9.89;74.73;99282.05;1685195;84;20949;-66
2021/09/25 01:26:11;;;;;;;3.40;1.00;;;;;;;9.88;74.80;99289.12;1684965;85;21004;-66
2021/09/25 01:28:39;;;;;;;2.05;0.60;;;;;;;9.88;74.86;99297.04;1685126;84;21009;-66
2021/09/25 01:31:07;;;;;;;3.05;0.72;;;;;;;9.86;74.96;99296.36;1658086;85;20968;-67
2021/09/25 01:33:43;;;;;;;2.42;0.80;;;;;;;9.85;75.03;99301.30;1684196;84;21829;-67
2021/09/25 01:36:11;;;;;;;2.40;0.90;;;;;;;9.85;75.08;99297.83;1685051;84;21515;-66
2021/09/25 01:38:39;;;;;;;3.77;0.82;;;;;;;9.84;75.17;99296.13;1685977;83;20945;-66
2021/09/25 01:41:06;;;;;;;5.90;1.10;;;;;;;9.83;75.26;99289.20;1680817;84;21041;-66
2021/09/25 01:43:32;;;;;;;2.92;1.20;;;;;;;9.81;75.37;99296.43;1679063;85;21038;-67
2021/09/25 01:45:59;;;;;;;4.10;0.78;;;;;;;9.82;75.38;99304.19;1676739;84;21874;-67
2021/09/25 01:48:26;;;;;;;3.67;0.88;;;;;;;9.82;75.42;99304.69;1674512;85;20981;-67
2021/09/25 01:50:52;;;;;;;2.17;0.85;;;;;;;9.82;75.58;99312.59;1677988;85;21040;-67
2021/09/25 01:53:21;;;;;;;3.15;0.70;;;;;;;9.82;75.60;99309.47;1680599;84;20996;-67
2021/09/25 01:55:49;;;;;;;4.53;1.22;;;;;;;9.83;75.70;99308.98;1690302;84;21031;-67
2021/09/25 01:58:16;;;;;;;2.25;0.90;;;;;;;9.84;75.78;99315.91;1709390;83;22452;-67
2021/09/25 02:00:42;;;;;;;3.08;0.80;;;;;;;9.85;75.83;99314.97;1709359;83;20941;-67
2021/09/25 02:03:11;;;;;;;3.90;0.90;;;;;;;9.87;75.84;99311.20;1698024;82;21060;-67
2021/09/25 02:05:38;;;;;;;3.55;0.90;;;;;;;9.88;75.88;99319.45;1680546;85;21100;-67
2021/09/25 02:08:05;;;;;;;4.15;1.00;;;;;;;9.90;75.87;99312.72;1680999;84;20973;-67
2021/09/25 02:10:32;;;;;;;1.92;0.93;;;;;;;9.92;75.88;99308.95;1681106;84;22795;-68
2021/09/25 02:12:58;;;;;;;2.72;0.95;;;;;;;9.95;75.85;99313.13;1680473;84;21107;-67
2021/09/25 02:15:25;;;;;;;2.75;0.90;;;;;;;9.97;75.85;99320.41;1680748;84;20960;-67
2021/09/25 02:17:51;;;;;;;4.83;1.22;;;;;;;9.98;75.85;99324.70;1681477;84;21029;-67
2021/09/25 02:20:17;;;;;;;3.50;1.10;;;;;;;9.98;75.87;99323.39;1680552;84;21012;-67
2021/09/25 02:22:44;;;;;;;3.67;0.80;;;;;;;9.97;75.95;99331.79;1680879;85;21873;-67
2021/09/25 02:25:11;;;;;;;1.30;0.75;;;;;;;9.99;75.96;99340.38;1681396;83;21479;-67
2021/09/25 02:27:40;;;;;;;3.10;0.82;;;;;;;10.00;75.96;99335.45;1680793;84;21215;-67
2021/09/25 02:30:09;;;;;;;1.90;0.90;;;;;;;10.01;75.96;99332.32;1677022;84;21100;-67
2021/09/25 02:32:36;;;;;;;2.55;0.90;;;;;;;10.03;75.96;99347.02;1674785;85;21017;-67
2021/09/25 02:35:04;;;;;;;2.27;1.00;;;;;;;10.03;75.96;99340.42;1675338;84;21670;-67
2021/09/25 02:37:30;;;;;;;2.80;1.00;;;;;;;10.05;75.99;99349.55;1674574;85;20935;-67
2021/09/25 02:39:57;;;;;;;5.05;1.10;;;;;;;10.04;75.99;99350.52;1674655;84;21006;-67
2021/09/25 02:42:23;;;;;;;2.95;0.90;;;;;;;10.03;76.04;99354.94;1675125;84;21022;-67
2021/09/25 02:44:49;;;;;;;3.25;0.98;;;;;;;10.02;76.11;99363.83;1675152;84;21086;-67
2021/09/25 02:47:16;;;;;;;4.17;1.32;;;;;;;10.02;76.11;99361.20;1690051;84;21793;-67
2021/09/25 02:49:42;;;;;;;3.20;1.02;;;;;;;10.03;76.18;99367.30;1719457;82;21491;-67
2021/09/25 02:52:08;;;;;;;5.85;0.90;;;;;;;10.05;76.17;99366.69;1684754;85;21563;-67
2021/09/25 02:54:35;;;;;;;4.58;0.90;;;;;;;10.08;76.15;99376.95;1692494;83;21740;-67
2021/09/25 02:57:02;;;;;;;2.33;0.98;;;;;;;10.10;76.11;99378.13;1714906;83;20949;-67
2021/09/25 02:59:28;;;;;;;2.72;1.45;;;;;;;10.12;76.07;99377.00;1714656;82;22175;-67
2021/09/25 03:01:55;;;;;;;4.37;2.17;;;;;;;10.15;76.04;99382.01;1714903;83;20949;-67
2021/09/25 03:04:21;;;;;;;12.63;8.75;;;;;;;10.15;76.01;99391.73;1685043;83;21479;-67
2021/09/25 03:06:48;;;;;;;5.78;3.92;;;;;;;10.15;75.96;99394.38;1686274;84;21581;-67
2021/09/25 03:09:14;;;;;;;4.75;1.20;;;;;;;10.16;75.93;99403.46;1686091;85;21080;-67
2021/09/25 03:11:41;;;;;;;3.27;0.90;;;;;;;10.15;75.88;99400.48;1686408;84;22787;-67
2021/09/25 03:14:07;;;;;;;2.55;1.80;;;;;;;10.14;75.90;99403.27;1686071;84;21393;-67
2021/09/25 03:16:33;;;;;;;4.28;1.30;;;;;;;10.14;75.90;99417.78;1686382;84;21367;-67
2021/09/25 03:19:00;;;;;;;2.50;1.50;;;;;;;10.11;75.92;99413.59;1685962;85;21046;-68
2021/09/25 03:21:26;;;;;;;2.60;1.82;;;;;;;10.11;75.98;99419.36;1671708;85;21371;-67
2021/09/25 03:23:53;;;;;;;13.55;8.83;;;;;;;10.10;75.98;99419.84;1669923;85;22834;-67
2021/09/25 03:26:19;;;;;;;4.50;1.00;;;;;;;10.11;76.02;99414.91;1670019;85;21008;-67
2021/09/25 03:28:47;;;;;;;6.00;1.22;;;;;;;10.12;75.93;99423.66;1669863;85;20969;-67
2021/09/25 03:31:13;;;;;;;3.85;1.87;;;;;;;10.13;75.88;99429.28;1670284;85;21063;-67
2021/09/25 03:33:39;;;;;;;4.90;2.67;;;;;;;10.13;75.90;99438.52;1659527;86;21069;-67
2021/09/25 03:36:07;;;;;;;7.47;3.42;;;;;;;10.13;75.90;99446.43;1664153;85;22186;-67
2021/09/25 03:38:33;;;;;;;4.62;1.30;;;;;;;10.13;75.89;99455.18;1664537;85;20973;-67
2021/09/25 03:41:00;;;;;;;5.25;0.95;;;;;;;10.15;75.89;99455.89;1665346;84;21003;-67
2021/09/25 03:43:27;;;;;;;2.20;0.80;;;;;;;10.16;75.82;99457.55;1672612;85;21071;-67
2021/09/25 03:45:53;;;;;;;5.70;1.60;;;;;;;10.18;75.77;99467.96;1683949;84;21079;-67
2021/09/25 03:48:20;;;;;;;2.77;1.50;;;;;;;10.19;75.75;99468.30;1677756;85;22198;-67
2021/09/25 03:50:46;;;;;;;6.30;1.40;;;;;;;10.20;75.72;99482.67;1677717;85;20957;-67
2021/09/25 03:53:12;;;;;;;4.25;0.80;;;;;;;10.20;75.66;99490.59;1677715;85;20961;-67
2021/09/25 03:55:39;;;;;;;3.27;1.20;;;;;;;10.23;75.56;99492.14;1677764;84;21607;-67
2021/09/25 03:58:05;;;;;;;3.27;1.02;;;;;;;10.22;75.55;99496.59;1678023;85;20961;-67
2021/09/25 04:00:32;;;;;;;2.85;0.90;;;;;;;10.23;75.48;99498.28;1676447;85;22163;-67
2021/09/25 04:02:58;;;;;;;3.77;1.00;;;;;;;10.24;75.36;99499.94;1675162;85;21061;-67
2021/09/25 04:05:24;;;;;;;4.67;1.30;;;;;;;10.27;75.30;99508.89;1672101;85;20990;-67
2021/09/25 04:07:51;;;;;;;4.08;1.30;;;;;;;10.29;75.21;99508.74;1672523;85;21014;-67
2021/09/25 04:10:17;;;;;;;2.87;1.00;;;;;;;10.30;75.09;99513.87;1672750;85;21060;-67
2021/09/25 04:12:44;;;;;;;4.00;0.93;;;;;;;10.33;75.06;99512.78;1676568;85;22174;-67
2021/09/25 04:15:11;;;;;;;4.03;1.07;;;;;;;10.36;74.99;99523.54;1677424;85;21015;-67
2021/09/25 04:17:37;;;;;;;3.87;0.80;;;;;;;10.36;74.97;99527.01;1659107;85;20968;-68
2021/09/25 04:20:05;;;;;;;4.15;0.90;;;;;;;10.38;74.89;99525.54;1677671;85;21524;-67
2021/09/25 04:22:32;;;;;;;2.58;0.90;;;;;;;10.39;74.79;99536.44;1673143;85;21060;-67
2021/09/25 04:24:58;;;;;;;2.47;1.00;;;;;;;10.39;74.72;99532.00;1664887;85;22186;-67
2021/09/25 04:27:29;;;;;;;3.00;0.85;;;;;;;10.39;74.71;99541.23;1676477;85;21064;-67
2021/09/25 04:29:53;;;;;;;2.65;0.60;;;;;;;10.42;74.64;99538.80;1678074;83;20948;-67
2021/09/25 04:32:19;;;;;;;2.52;0.80;;;;;;;10.44;74.63;99551.39;1676319;85;21044;-67
2021/09/25 04:34:45;;;;;;;2.52;0.80;;;;;;;10.44;74.56;99554.86;1677415;85;20953;-67
2021/09/25 04:37:12;;;;;;;1.95;0.82;;;;;;;10.46;74.51;99556.03;1672107;85;21779;-67
2021/09/25 04:39:38;;;;;;;3.90;0.90;;;;;;;10.48;74.52;99562.00;1672045;85;21502;-67
2021/09/25 04:42:05;;;;;;;3.52;0.90;;;;;;;10.50;74.44;99564.01;1669684;85;21441;-67
2021/09/25 04:44:32;;;;;;;2.70;0.90;;;;;;;10.53;74.31;99564.58;1669852;85;21030;-68
2021/09/25 04:46:58;;;;;;;3.95;0.93;;;;;;;10.56;74.29;99575.34;1680321;85;21050;-68
2021/09/25 04:49:24;;;;;;;6.40;2.30;;;;;;;10.57;74.17;99579.15;1685370;84;22191;-67
2021/09/25 04:51:51;;;;;;;4.33;0.90;;;;;;;10.60;74.15;99572.75;1682274;83;21048;-67
2021/09/25 04:54:17;;;;;;;2.77;0.80;;;;;;;10.62;74.03;99569.50;1675863;84;21015;-67
2021/09/25 04:56:43;;;;;;;2.22;0.88;;;;;;;10.65;74.01;99580.27;1684660;83;21045;-68
2021/09/25 04:59:10;;;;;;;2.47;0.98;;;;;;;10.68;74.00;99583.93;1680164;85;21471;-68
2021/09/25 05:01:36;;;;;;;4.22;0.80;;;;;;;10.68;73.78;99587.89;1681334;84;22805;-68
2021/09/25 05:04:04;;;;;;;4.62;0.95;;;;;;;10.68;73.78;99594.00;1683976;84;21000;-68
2021/09/25 05:06:31;;;;;;;3.10;0.80;;;;;;;10.71;73.74;99592.88;1685344;84;21016;-68
2021/09/25 05:08:57;;;;;;;3.40;0.90;;;;;;;10.74;73.68;99602.69;1685948;84;21490;-67
2021/09/25 05:11:25;;;;;;;2.95;0.90;;;;;;;10.74;73.64;99600.05;1682011;84;21041;-68
2021/09/25 05:13:52;;;;;;;2.62;0.90;;;;;;;10.75;73.53;99603.03;1680848;84;22181;-68
2021/09/25 05:16:18;;;;;;;3.67;0.98;;;;;;;10.76;73.50;99600.73;1657471;86;21072;-67
2021/09/25 05:18:44;;;;;;;2.52;0.90;;;;;;;10.78;73.56;99610.67;1667580;84;20961;-67
2021/09/25 05:21:11;;;;;;;4.28;0.80;;;;;;;10.81;73.48;99606.44;1685116;84;21064;-67
2021/09/25 05:23:37;;;;;;;1.87;0.90;;;;;;;10.84;73.29;99609.28;1685251;84;20968;-67
2021/09/25 05:26:04;;;;;;;4.65;0.70;;;;;;;10.87;73.35;99611.14;1660767;84;22243;-67
2021/09/25 05:28:30;;;;;;;3.05;0.90;;;;;;;10.91;73.21;99614.34;1683527;84;21551;-68
2021/09/25 05:30:57;;;;;;;3.27;1.05;;;;;;;10.96;73.18;99618.70;1677280;84;21004;-68
2021/09/25 05:33:23;;;;;;;2.62;1.10;;;;;;;11.02;73.15;99630.03;1685118;85;21124;-68
2021/09/25 05:35:50;;;;;;;3.22;1.12;;;;;;;11.13;72.80;99624.58;1684650;84;21005;-67
2021/09/25 05:38:16;;;;;;;4.00;1.00;;;;;;;11.13;72.64;99627.70;1662534;84;22213;-67
2021/09/25 05:40:43;;;;;;;3.25;0.93;;;;;;;11.17;72.59;99637.00;1664770;84;21119;-68
2021/09/25 05:43:09;;;;;;;3.47;1.00;;;;;;;11.20;72.49;99639.38;1683864;83;22055;-68
2021/09/25 05:45:35;;;;;;;3.10;1.10;;;;;;;11.23;72.43;99639.58;1683134;83;21012;-68
2021/09/25 05:48:02;;;;;;;5.45;2.33;;;;;;;11.27;72.33;99645.73;1689213;84;21024;-68
2021/09/25 05:50:28;;;;;;;10.40;3.58;;;;;;;11.28;72.14;99647.89;1673759;84;21896;-68
2021/09/25 05:52:55;;;;;;;12.10;4.83;;;;;;;11.32;72.09;99658.05;1691306;83;21039;-70
2021/09/25 05:55:22;;;;;;;8.43;2.83;;;;;;;11.36;71.98;99663.38;1668865;84;21056;-69
2021/09/25 05:57:48;;;;;;;13.70;4.83;;;;;;;11.38;71.76;99663.23;1650471;85;21065;-68
2021/09/25 06:00:15;;;;;;;7.45;3.08;;;;;;;11.42;71.75;99669.42;1683527;84;21551;-69
2021/09/25 06:02:42;;;;;;;6.40;2.87;;;;;;;11.49;71.66;99667.53;1707128;83;21848;-69
2021/09/25 06:05:09;;;;;;;7.50;2.85;;;;;;;11.55;71.29;99669.58;1689123;84;21033;-70
2021/09/25 06:07:36;;;;;;;7.42;2.60;;;;;;;11.60;71.31;99687.19;1675088;85;21096;-68
2021/09/25 06:10:08;;;;;;;6.78;1.80;;;;;;;11.64;71.24;99683.27;1684295;84;21091;-71
2021/09/25 06:12:35;;;;;;;6.00;1.82;;;;;;;11.67;71.13;99677.67;1662196;84;21497;-70
2021/09/25 06:15:02;;;;;;;6.45;1.60;;;;;;;11.69;70.84;99686.31;1679272;84;22821;-70
2021/09/25 06:17:29;;;;;;;10.03;1.70;;;;;;;11.69;70.51;99702.19;1658107;85;21077;-71
2021/09/25 06:19:55;;;;;;;3.20;1.00;;;;;;;11.67;70.43;99699.66;1689465;83;21051;-70
2021/09/25 06:22:21;;;;;;;2.67;1.17;;;;;;;11.69;70.39;99707.48;1686920;83;21057;-71
2021/09/25 06:24:48;;;;;;;4.05;1.25;;;;;;;11.74;70.45;99702.57;1689588;83;21035;-70
2021/09/25 06:27:14;;;;;;;2.42;1.20;;;;;;;11.87;70.36;99703.58;1684474;84;21809;-70
2021/09/25 06:29:41;;;;;;;3.55;1.10;;;;;;;11.99;70.13;99699.78;1683827;85;21042;-69
2021/09/25 06:32:07;;;;;;;2.02;0.70;;;;;;;12.13;69.76;99697.13;1685791;83;21015;-69
2021/09/25 06:34:33;;;;;;;2.50;0.90;;;;;;;12.21;69.31;99711.78;1686614;83;21040;-70
2021/09/25 06:37:00;;;;;;;3.83;1.22;;;;;;;12.29;68.67;99716.67;1682681;83;21060;-70
2021/09/25 06:39:26;;;;;;;1.75;0.80;;;;;;;12.35;68.35;99717.88;1675316;84;21814;-71
2021/09/25 06:41:53;;;;;;;3.08;0.93;;;;;;;12.45;68.58;99723.97;1684113;83;21048;-71
2021/09/25 06:44:20;;;;;;;2.10;0.90;;;;;;;12.52;68.01;99722.38;1673651;84;21016;-71
2021/09/25 06:46:46;;;;;;;2.45;0.90;;;;;;;12.57;67.88;99721.44;1680862;84;21088;-70
2021/09/25 06:49:13;;;;;;;1.82;0.82;;;;;;;12.58;67.42;99724.43;1652766;85;21011;-69
2021/09/25 06:51:39;;;;;;;4.62;1.10;;;;;;;12.60;67.60;99727.76;1682722;84;21833;-71
2021/09/25 06:54:06;;;;;;;3.40;1.12;;;;;;;12.67;67.78;99734.63;1682059;83;21035;-70
2021/09/25 06:56:33;;;;;;;2.02;1.22;;;;;;;12.71;67.58;99745.73;1680665;83;21055;-69
2021/09/25 06:58:59;;;;;;;2.72;0.90;;;;;;;12.69;67.25;99749.87;1680712;84;21077;-70
2021/09/25 07:01:26;;;;;;;1.10;0.80;;;;;;;12.66;67.04;99746.20;1680085;84;21067;-68
2021/09/25 07:03:53;;;;;;;3.98;2.02;;;;;;;12.60;67.01;99767.50;1677633;83;21838;-70
2021/09/25 07:06:21;;;;;;;3.00;1.17;;;;;;;12.52;67.12;99762.59;1677275;84;21068;-70
2021/09/25 07:08:49;;;;;;;3.80;1.00;;;;;;;12.50;67.33;99759.27;1682315;84;21098;-69
2021/09/25 07:11:16;;;;;;;2.25;0.98;;;;;;;12.48;67.55;99769.19;1680181;83;21096;-70
2021/09/25 07:13:43;;;;;;;2.90;1.20;;;;;;;12.49;67.86;99771.69;1683263;83;21023;-69
2021/09/25 07:16:11;;;;;;;1.92;1.10;;;;;;;12.57;67.75;99770.45;1683134;84;21850;-69
2021/09/25 07:18:38;;;;;;;3.75;1.20;;;;;;;12.58;67.69;99774.77;1681967;84;21041;-69
2021/09/25 07:21:07;;;;;;;5.28;1.72;;;;;;;12.60;67.11;99784.72;1671296;84;21570;-68
2021/09/25 07:23:36;;;;;;;4.75;1.47;;;;;;;12.65;67.10;99786.10;1677683;84;21492;-68
2021/09/25 07:26:02;;;;;;;1.70;1.30;;;;;;;12.71;67.21;99792.11;1677945;84;21024;-68
2021/09/25 07:28:28;;;;;;;3.90;1.25;;;;;;;12.79;67.19;99797.50;1674432;84;21791;-68
2021/09/25 07:30:55;;;;;;;2.70;1.10;;;;;;;12.88;66.90;99799.25;1648467;85;21506;-69
2021/09/25 07:33:21;;;;;;;1.35;1.00;;;;;;;12.94;66.56;99805.28;1676815;84;21529;-69
2021/09/25 07:35:47;;;;;;;6.55;1.47;;;;;;;12.99;66.36;99803.49;1680865;83;22251;-70
2021/09/25 07:38:14;;;;;;;5.03;1.30;;;;;;;13.02;65.87;99809.31;1680358;84;21485;-70
2021/09/25 07:40:40;;;;;;;2.58;1.00;;;;;;;13.07;65.68;99822.97;1666189;85;22805;-69
2021/09/25 07:43:07;;;;;;;2.35;1.10;;;;;;;13.12;65.27;99813.22;1679267;84;21530;-69
2021/09/25 07:45:34;;;;;;;2.35;1.15;;;;;;;13.08;64.62;99816.67;1675605;84;21460;-68
2021/09/25 07:48:01;;;;;;;4.28;1.40;;;;;;;13.02;64.33;99828.36;1680684;83;21696;-68
2021/09/25 07:50:28;;;;;;;2.17;1.10;;;;;;;12.99;64.79;99822.05;1687220;84;21450;-67
2021/09/25 07:52:56;;;;;;;1.47;1.10;;;;;;;12.98;64.64;99826.52;1685438;84;21772;-67
2021/09/25 07:55:24;;;;;;;1.27;0.95;;;;;;;12.99;64.53;99826.03;1687469;82;21451;-69
2021/09/25 07:57:51;;;;;;;2.25;1.10;;;;;;;12.99;64.49;99836.14;1679116;84;21004;-67
2021/09/25 08:00:18;;;;;;;2.12;1.20;;;;;;;13.03;64.69;99845.47;1690296;84;21038;-67
2021/09/25 08:02:44;;;;;;;1.45;1.07;;;;;;;13.10;64.64;99847.84;1690392;83;20944;-67
2021/09/25 08:05:11;;;;;;;4.30;1.20;;;;;;;13.18;64.83;99846.59;1690377;83;22655;-69
2021/09/25 08:07:38;;;;;;;3.85;1.40;;;;;;;13.20;64.16;99845.15;1683944;84;20981;-70
2021/09/25 08:10:07;;;;;;;1.85;1.10;;;;;;;13.17;64.17;99851.56;1690520;84;21004;-70
2021/09/25 08:12:33;;;;;;;4.22;1.60;;;;;;;13.22;64.25;99856.47;1666593;85;21005;-71
2021/09/25 08:15:00;;;;;;;2.20;1.10;;;;;;;13.27;64.15;99859.97;1679280;85;21579;-70
2021/09/25 08:17:26;;;;;;;1.50;1.40;;;;;;;13.29;63.98;99862.80;1684929;83;22884;-70
2021/09/25 08:19:52;;;;;;;4.83;1.60;;;;;;;13.32;63.72;99859.04;1679305;84;21487;-70
2021/09/25 08:22:19;;;;;;;1.77;1.30;;;;;;;13.33;63.88;99866.84;1678203;85;21515;-69
2021/09/25 08:24:45;;;;;;;4.83;1.32;;;;;;;13.35;63.88;99870.17;1677899;85;21336;-69
2021/09/25 08:27:12;;;;;;;2.85;1.67;;;;;;;13.40;64.14;99869.70;1687280;83;21034;-70
2021/09/25 08:29:38;;;;;;;4.08;2.10;;;;;;;13.42;63.88;99869.08;1680326;84;22169;-70
2021/09/25 08:32:06;;;;;;;3.70;1.45;;;;;;;13.43;64.05;99872.07;1674613;84;20963;-70
2021/09/25 08:34:33;;;;;;;2.08;1.40;;;;;;;13.48;64.13;99872.92;1699338;83;21062;-69
2021/09/25 08:36:59;;;;;;;2.25;1.52;;;;;;;13.51;64.11;99872.14;1686534;84;21063;-70
2021/09/25 08:39:25;;;;;;;3.50;1.42;;;;;;;13.51;63.92;99876.12;1687405;84;20987;-69
2021/09/25 08:41:52;;;;;;;3.85;1.80;;;;;;;13.53;64.11;99875.97;1678664;84;22156;-69
2021/09/25 08:44:20;;;;;;;2.50;1.50;;;;;;;13.58;64.20;99869.20;1686875;84;21055;-70
2021/09/25 08:46:47;;;;;;;3.58;2.00;;;;;;;13.66;64.19;99873.25;1704413;84;21046;-70
2021/09/25 08:49:13;;;;;;;3.67;1.80;;;;;;;13.73;63.93;99872.98;1691517;84;21052;-69
2021/09/25 08:51:40;;;;;;;4.40;2.27;;;;;;;13.77;63.44;99874.82;1692556;83;21435;-70
2021/09/25 08:54:06;;;;;;;4.47;2.12;;;;;;;13.77;63.14;99866.86;1692691;82;22532;-68
2021/09/25 08:56:33;;;;;;;3.58;1.80;;;;;;;13.82;63.26;99870.39;1685652;84;21014;-71
2021/09/25 08:58:59;;;;;;;3.22;1.75;;;;;;;13.91;62.76;99868.14;1690275;84;21089;-70
2021/09/25 09:01:31;;;;;;;3.47;1.60;;;;;;;14.02;62.54;99875.84;1673949;85;21110;-72
2021/09/25 09:03:55;;;;;;;2.15;1.42;;;;;;;14.13;62.03;99876.91;1688077;84;21491;-70
2021/09/25 09:06:31;;;;;;;4.05;1.70;;;;;;;14.22;61.08;99877.29;1685594;85;22822;-69
2021/09/25 09:09:03;;;;;;;3.17;1.32;;;;;;;14.29;60.94;99877.01;1642584;84;20973;-70
2021/09/25 09:11:30;;;;;;;6.50;1.25;;;;;;;14.37;60.59;99893.95;1676387;85;21004;-69
2021/09/25 09:14:00;;;;;;;2.92;1.50;;;;;;;14.37;59.36;99897.45;1673778;85;21048;-69
2021/09/25 09:16:30;;;;;;;2.47;1.70;;;;;;;14.36;59.37;99893.63;1675228;84;21055;-69
2021/09/25 09:18:57;;;;;;;3.10;1.62;;;;;;;14.43;59.33;99899.48;1686284;83;22646;-70
2021/09/25 09:21:26;;;;;;;3.33;1.47;;;;;;;14.46;59.23;99901.84;1650976;85;21388;-68
2021/09/25 09:23:56;;;;;;;3.83;1.40;;;;;;;14.44;59.18;99904.30;1683482;84;21091;-70
2021/09/25 09:26:35;;;;;;;2.85;1.40;;;;;;;14.41;59.60;99909.45;1682470;84;21059;-70
2021/09/25 09:29:05;;;;;;;3.37;1.47;;;;;;;14.37;59.94;99907.24;1676298;84;21050;-70
2021/09/25 09:31:31;;;;;;;3.40;1.50;;;;;;;14.38;60.04;99904.45;1682421;84;22471;-71
2021/09/25 09:34:03;;;;;;;5.62;1.32;;;;;;;14.46;60.32;99908.98;1681060;84;22323;-70
2021/09/25 09:36:42;;;;;;;2.37;1.45;;;;;;;14.55;60.56;99913.36;1676796;85;21043;-71
2021/09/25 09:39:15;;;;;;;3.25;1.40;;;;;;;14.67;59.91;99915.23;1671193;84;21469;-70
2021/09/25 09:41:53;;;;;;;3.25;1.42;;;;;;;14.69;59.47;99915.44;1671405;84;21132;-71
2021/09/25 09:44:25;;;;;;;2.20;1.32;;;;;;;14.66;59.26;99919.72;1673100;84;21825;-69
2021/09/25 09:46:54;;;;;;;2.70;1.32;;;;;;;14.58;59.23;99913.06;1669951;84;21055;-69
2021/09/25 09:49:34;;;;;;;1.50;1.17;;;;;;;14.60;59.67;99916.38;1687700;84;21474;-72
2021/09/25 09:52:06;;;;;;;4.37;1.20;;;;;;;14.68;59.45;99909.78;1666272;84;21577;-69
2021/09/25 09:54:35;;;;;;;3.10;1.20;;;;;;;14.72;58.94;99922.25;1678978;85;21059;-70
2021/09/25 09:57:09;;;;;;;2.90;1.12;;;;;;;14.72;59.04;99939.03;1682835;83;22446;-70
2021/09/25 09:59:37;;;;;;;4.40;1.00;;;;;;;14.72;59.18;99945.67;1683224;83;21079;-71
2021/09/25 10:02:04;;;;;;;2.15;0.90;;;;;;;14.65;58.68;99935.33;1683388;85;20959;-69
2021/09/25 10:04:32;;;;;;;4.08;0.80;;;;;;;14.64;59.21;99938.98;1684878;84;21038;-69
2021/09/25 10:06:59;;;;;;;1.70;0.78;;;;;;;14.70;58.90;99937.03;1664262;85;21053;-70
2021/09/25 10:09:28;;;;;;;1.77;0.80;;;;;;;14.69;58.72;99931.38;1664114;85;21864;-72
2021/09/25 10:12:04;;;;;;;1.87;0.90;;;;;;;14.69;59.20;99926.06;1668748;85;22154;-69
2021/09/25 10:14:34;;;;;;;2.10;0.80;;;;;;;14.65;59.26;99935.33;1668347;85;21024;-70
2021/09/25 10:17:04;;;;;;;3.30;1.15;;;;;;;14.60;59.66;99934.99;1683604;85;21537;-70
2021/09/25 10:19:31;;;;;;;2.92;1.17;;;;;;;14.59;60.15;99934.16;1678587;85;21048;-70
2021/09/25 10:22:15;;;;;;;2.22;0.80;;;;;;;14.68;60.05;99939.52;1682344;85;21819;-70
2021/09/25 10:24:54;;;;;;;3.33;0.80;;;;;;;14.65;59.61;99941.14;1684617;85;21035;-69
2021/09/25 10:27:22;;;;;;;3.02;1.00;;;;;;;14.56;59.68;99941.09;1675397;84;21106;-72
2021/09/25 10:29:50;;;;;;;3.98;0.90;;;;;;;14.52;59.43;99943.75;1661337;85;21041;-70
2021/09/25 10:32:21;;;;;;;2.62;1.00;;;;;;;14.51;59.84;99950.05;1684772;83;21035;-70
2021/09/25 10:35:21;;;;;;;2.45;0.90;;;;;;;14.57;59.87;99951.23;1684780;85;22484;-70
2021/09/25 10:37:51;;;;;;;3.60;1.10;;;;;;;14.57;59.65;99940.60;1678955;85;21091;-70
2021/09/25 10:40:21;;;;;;;4.03;0.95;;;;;;;14.49;59.85;99937.43;1668033;85;21450;-69
2021/09/25 10:42:55;;;;;;;3.05;1.02;;;;;;;14.44;60.07;99936.19;1681107;85;21088;-69
2021/09/25 10:45:28;;;;;;;1.75;0.90;;;;;;;14.41;60.39;99936.02;1683983;85;21419;-71
2021/09/25 10:48:16;;;;;;;2.08;0.90;;;;;;;14.44;60.46;99941.50;1684489;84;22227;-70
2021/09/25 10:51:05;;;;;;;3.10;0.90;;;;;;;14.48;59.96;99937.59;1678540;84;21062;-71
2021/09/25 10:53:33;;;;;;;1.07;0.65;;;;;;;14.49;59.69;99939.25;1667298;85;21521;-72
2021/09/25 10:56:03;;;;;;;2.60;0.90;;;;;;;14.54;59.56;99942.25;1674865;85;21185;-70
2021/09/25 10:58:36;;;;;;;1.82;0.80;;;;;;;14.59;59.87;99950.11;1676158;84;20960;-71
2021/09/25 11:01:09;;;;;;;2.08;0.68;;;;;;;14.63;59.03;99951.94;1649779;86;21844;-71
2021/09/25 11:03:53;;;;;;;1.67;0.80;;;;;;;14.70;59.13;99945.01;1669591;84;20948;-72
2021/09/25 11:06:42;;;;;;;2.45;0.85;;;;;;;14.77;59.21;99946.05;1665218;84;21126;-73
2021/09/25 11:09:33;;;;;;;2.50;0.90;;;;;;;14.86;58.67;99942.90;1666799;84;21033;-69
2021/09/25 11:12:11;;;;;;;1.67;0.70;;;;;;;14.97;58.93;99944.47;1659850;83;21102;-69
2021/09/25 11:14:47;;;;;;;2.42;0.80;;;;;;;15.04;58.66;99939.66;1657182;84;21826;-69
2021/09/25 11:17:28;;;;;;;5.58;1.05;;;;;;;15.13;58.06;99945.34;1668300;84;21028;-68
2021/09/25 11:20:03;;;;;;;6.33;1.10;;;;;;;15.16;58.01;99941.05;1658329;84;33123;-68
2021/09/25 11:22:38;;;;;;;4.45;1.00;;;;;;;15.22;58.12;99930.73;1649330;85;21060;-68
2021/09/25 11:25:18;;;;;;;5.03;1.10;;;;;;;15.31;58.24;99926.59;1670849;84;21514;-70
2021/09/25 11:27:49;;;;;;;1.65;0.80;;;;;;;15.37;57.58;99928.62;1668765;84;20992;-68
2021/09/25 11:30:21;;;;;;;4.30;1.05;;;;;;;15.41;57.40;99917.97;1675618;84;21447;-69
2021/09/25 11:32:53;;;;;;;5.42;1.25;;;;;;;15.46;57.57;99922.31;1671463;84;21071;-70
2021/09/25 11:35:25;;;;;;;2.50;0.98;;;;;;;15.49;56.82;99917.66;1673457;85;21534;-69
2021/09/25 11:37:59;;;;;;;2.20;0.80;;;;;;;15.43;56.52;99919.95;1676395;85;20997;-73